createdAt,value
2019-01-30T11:12:21.325Z,85.20
2019-01-30T11:17:26.655Z,84.70
2019-01-30T11:22:31.944Z,85.00
2019-01-30T11:27:37.272Z,85.10
2019-01-30T11:32:42.594Z,85.10
2019-01-30T11:37:47.970Z,84.90
2019-01-30T11:42:53.276Z,84.80
2019-01-30T11:47:58.580Z,84.60
2019-01-30T11:53:04.319Z,84.70
2019-01-30T11:58:09.821Z,84.60
2019-01-30T12:03:15.274Z,84.30
2019-01-30T12:08:20.604Z,84.00
2019-01-30T12:13:25.977Z,83.80
2019-01-30T12:18:31.268Z,83.60
2019-01-30T12:23:36.561Z,83.20
2019-01-30T12:28:41.928Z,83.10
2019-01-30T12:33:47.247Z,83.50
2019-01-30T12:38:52.787Z,83.50
2019-01-30T12:43:58.097Z,83.00
2019-01-30T12:49:03.488Z,82.80
2019-01-30T12:54:08.814Z,82.80
2019-01-30T12:59:14.128Z,82.50
2019-01-30T13:04:19.411Z,82.90
2019-01-30T13:09:24.763Z,82.70
2019-01-30T13:14:30.250Z,82.60
2019-01-30T13:19:35.554Z,82.50
2019-01-30T13:24:40.862Z,82.30
2019-01-30T13:29:46.228Z,82.20
2019-01-30T13:34:51.685Z,82.20
2019-01-30T13:39:56.992Z,82.50
2019-01-30T13:45:02.318Z,82.60
2019-01-30T13:50:20.544Z,82.50
2019-01-30T13:55:25.917Z,82.50
2019-01-30T14:00:33.874Z,82.60
2019-01-30T14:05:39.294Z,82.90
2019-01-30T14:10:44.689Z,83.10
2019-01-30T14:15:50.104Z,83.10
2019-01-30T14:20:55.500Z,83.20
2019-01-30T14:26:00.794Z,83.40
2019-01-30T14:31:06.341Z,83.40
2019-01-30T14:36:11.654Z,83.50
2019-01-30T14:41:17.077Z,83.50
2019-01-30T14:46:22.510Z,83.60
2019-01-30T14:51:27.803Z,83.50
2019-01-30T14:56:33.116Z,83.60
2019-01-30T15:01:38.440Z,83.80
2019-01-30T15:06:43.788Z,84.00
2019-01-30T15:11:49.159Z,84.00
2019-01-30T15:16:54.714Z,84.20
2019-01-30T15:22:02.016Z,84.30
2019-01-30T15:27:07.386Z,84.40
2019-01-30T15:32:12.699Z,84.60
2019-01-30T15:37:18.040Z,84.60
2019-01-30T15:42:23.335Z,84.80
2019-01-30T15:47:28.640Z,84.70
2019-01-30T15:52:33.975Z,84.70
2019-01-30T15:57:39.290Z,84.60
2019-01-30T16:02:44.677Z,84.60
2019-01-30T16:07:50.058Z,84.70
2019-01-30T16:12:55.391Z,84.60
2019-01-30T16:18:00.786Z,84.80
2019-01-30T16:23:06.111Z,84.80
2019-01-30T16:28:11.421Z,84.90
2019-01-30T16:33:17.026Z,84.90
2019-01-30T16:38:22.403Z,84.90
2019-01-30T16:43:27.828Z,85.10
2019-01-30T16:48:33.176Z,85.20
2019-01-30T16:53:38.498Z,85.20
2019-01-30T16:58:43.775Z,85.30
2019-01-30T17:03:49.057Z,85.40
2019-01-30T17:08:54.564Z,85.50
2019-01-30T17:13:59.949Z,85.50
2019-01-30T17:19:05.387Z,85.50
2019-01-30T17:24:12.055Z,85.50
2019-01-30T17:29:19.477Z,85.60
2019-01-30T17:34:25.788Z,85.70
2019-01-30T17:39:41.187Z,85.60
2019-01-30T17:44:47.504Z,85.50
2019-01-30T17:49:52.848Z,85.70
2019-01-30T17:54:58.165Z,85.70
2019-01-30T18:00:05.283Z,85.70
2019-01-30T18:05:10.711Z,85.70
2019-01-30T18:10:17.927Z,85.70
2019-01-30T18:15:23.461Z,85.70
2019-01-30T18:20:28.868Z,86.60
2019-01-30T18:25:34.187Z,86.00
2019-01-30T18:30:39.758Z,86.00
2019-01-30T18:35:45.119Z,86.10
2019-01-30T18:40:50.433Z,86.00
2019-01-30T18:45:55.870Z,86.00
2019-01-30T18:51:01.351Z,85.80
2019-01-30T18:56:07.111Z,85.80
2019-01-30T19:01:12.638Z,85.80
2019-01-30T19:06:18.104Z,85.70
2019-01-30T19:11:23.837Z,85.70
2019-01-30T19:16:29.362Z,85.70
2019-01-30T19:21:34.919Z,85.80
2019-01-30T19:26:40.498Z,85.80
2019-01-30T19:31:46.111Z,85.80
2019-01-30T19:37:02.932Z,85.80
2019-01-30T19:41:58.866Z,85.90
2019-01-30T19:47:04.336Z,85.90
2019-01-30T19:52:09.834Z,85.80
2019-01-30T19:57:15.822Z,86.00
2019-01-30T20:02:21.246Z,86.10
2019-01-30T20:07:26.913Z,86.20
2019-01-30T20:12:32.356Z,86.40
2019-01-30T20:17:37.883Z,86.50
2019-01-30T20:22:43.447Z,86.40
2019-01-30T20:27:48.886Z,86.40
2019-01-30T20:32:54.510Z,86.50
2019-01-30T20:37:59.857Z,86.60
2019-01-30T20:43:05.174Z,86.50
2019-01-30T20:48:10.571Z,86.50
2019-01-30T20:53:15.899Z,86.50
2019-01-30T20:58:21.268Z,86.40
2019-01-30T21:03:26.591Z,86.50
2019-01-30T21:08:31.917Z,86.50
2019-01-30T21:13:37.273Z,86.70
2019-01-30T21:18:42.606Z,86.70
2019-01-30T21:23:47.939Z,86.80
2019-01-30T21:28:53.281Z,86.90
2019-01-30T21:33:58.620Z,87.00
2019-01-30T21:39:05.534Z,87.00
2019-01-30T21:44:10.834Z,86.90
2019-01-30T21:54:20.307Z,87.20
2019-01-30T21:59:25.643Z,87.20
2019-01-30T22:04:30.944Z,87.00
2019-01-30T22:09:36.298Z,87.00
2019-01-30T22:14:41.797Z,87.30
2019-01-30T22:19:47.132Z,87.30
2019-01-30T22:24:52.463Z,87.30
2019-01-30T22:29:57.836Z,87.30
2019-01-30T22:35:03.143Z,87.20
2019-01-30T22:40:10.167Z,87.20
2019-01-30T22:45:17.205Z,87.50
2019-01-30T22:50:22.794Z,87.60
2019-01-30T22:55:28.172Z,87.70
2019-01-30T23:01:20.354Z,87.90
2019-01-30T23:07:29.158Z,87.90
2019-01-30T23:13:22.170Z,87.80
2019-01-30T23:19:00.695Z,87.60
2019-01-30T23:24:56.294Z,87.30
2019-01-30T23:30:45.216Z,87.10
2019-01-30T23:36:27.323Z,86.70
2019-01-30T23:42:01.697Z,86.60
2019-01-30T23:47:54.011Z,86.20
2019-01-30T23:53:56.198Z,85.90
2019-01-30T23:59:43.339Z,85.80
